createdAt,value
2023-02-27T00:01:24.931Z,56.35
2023-02-27T00:03:51.607Z,56.38
2023-02-27T00:06:18.092Z,56.29
2023-02-27T00:08:47.918Z,56.40
2023-02-27T00:11:15.888Z,56.16
2023-02-27T00:13:42.539Z,56.47
2023-02-27T00:16:11.216Z,56.08
2023-02-27T00:18:39.008Z,57.13
2023-02-27T00:21:05.752Z,56.40
2023-02-27T00:23:32.326Z,56.18
2023-02-27T00:26:00.996Z,56.61
2023-02-27T00:28:28.431Z,56.29
2023-02-27T00:30:55.015Z,56.21
2023-02-27T00:33:22.025Z,55.84
2023-02-27T00:36:06.641Z,56.12
2023-02-27T00:38:33.195Z,56.86
2023-02-27T00:40:59.687Z,56.80
2023-02-27T00:43:26.673Z,56.41
2023-02-27T00:45:53.167Z,56.91
2023-02-27T00:48:19.805Z,57.33
2023-02-27T00:50:50.361Z,56.27
2023-02-27T00:53:19.943Z,57.18
2023-02-27T00:55:49.214Z,57.03
2023-02-27T00:58:18.417Z,57.08
2023-02-27T01:00:44.999Z,57.27
2023-02-27T01:03:11.547Z,57.38
2023-02-27T01:05:38.179Z,57.11
2023-02-27T01:08:05.039Z,56.91
2023-02-27T01:10:31.660Z,56.80
2023-02-27T01:12:58.146Z,56.74
2023-02-27T01:15:24.738Z,56.45
2023-02-27T01:17:51.468Z,57.35
2023-02-27T01:20:21.653Z,56.91
2023-02-27T01:22:51.113Z,57.25
2023-02-27T01:25:18.597Z,57.61
2023-02-27T01:27:45.302Z,57.14
2023-02-27T01:30:14.618Z,57.41
2023-02-27T01:32:41.275Z,57.38
2023-02-27T01:35:08.395Z,57.94
2023-02-27T01:37:34.929Z,57.41
2023-02-27T01:40:01.423Z,57.31
2023-02-27T01:42:28.885Z,57.02
2023-02-27T01:45:02.541Z,57.83
2023-02-27T01:47:29.016Z,58.11
2023-02-27T01:49:55.853Z,58.00
2023-02-27T01:52:22.416Z,58.54
2023-02-27T01:54:50.987Z,58.68
2023-02-27T01:57:17.444Z,58.47
2023-02-27T01:59:43.987Z,58.32
2023-02-27T02:02:21.999Z,58.50
2023-02-27T02:04:53.172Z,58.19
2023-02-27T02:07:25.193Z,58.76
2023-02-27T02:09:54.776Z,58.65
2023-02-27T02:12:26.954Z,58.76
2023-02-27T02:14:53.416Z,58.38
2023-02-27T02:17:45.409Z,58.34
2023-02-27T02:20:28.716Z,58.67
2023-02-27T02:23:13.847Z,58.35
2023-02-27T02:25:49.327Z,59.15
2023-02-27T02:28:43.216Z,59.62
2023-02-27T02:31:29.052Z,59.06
2023-02-27T02:34:10.967Z,59.46
2023-02-27T02:37:05.979Z,59.33
2023-02-27T02:39:57.136Z,59.08
2023-02-27T02:42:49.004Z,59.80
2023-02-27T02:46:08.151Z,59.27
2023-02-27T02:48:48.090Z,59.13
2023-02-27T02:51:20.386Z,59.50
2023-02-27T02:54:08.536Z,59.78
2023-02-27T02:56:37.719Z,58.93
2023-02-27T02:59:16.118Z,59.26
2023-02-27T03:01:53.966Z,58.87
2023-02-27T03:04:31.873Z,58.92
2023-02-27T03:07:09.825Z,58.86
2023-02-27T03:09:42.813Z,59.61
2023-02-27T03:12:11.989Z,59.29
2023-02-27T03:14:46.545Z,59.70
2023-02-27T03:17:26.137Z,59.26
2023-02-27T03:19:55.767Z,58.69
2023-02-27T03:22:30.303Z,59.31
2023-02-27T03:25:00.472Z,59.16
2023-02-27T03:27:32.292Z,59.27
2023-02-27T03:30:07.462Z,59.24
2023-02-27T03:32:46.446Z,58.93
2023-02-27T03:35:13.762Z,58.71
2023-02-27T03:38:02.209Z,59.08
2023-02-27T03:41:07.130Z,59.33
2023-02-27T03:43:44.657Z,59.87
2023-02-27T03:46:15.153Z,59.40
2023-02-27T03:48:44.648Z,59.77
2023-02-27T03:51:13.767Z,59.49
2023-02-27T03:54:09.736Z,59.79
2023-02-27T03:56:57.725Z,59.44
2023-02-27T03:59:25.136Z,59.45
2023-02-27T04:01:53.274Z,59.64
2023-02-27T04:04:19.827Z,58.77
2023-02-27T04:07:10.630Z,59.57
2023-02-27T04:09:58.429Z,59.06
2023-02-27T04:12:24.813Z,59.00
2023-02-27T04:15:12.123Z,59.07
2023-02-27T04:17:44.132Z,59.82
2023-02-27T04:20:20.645Z,59.69
2023-02-27T04:22:52.937Z,59.33
2023-02-27T04:25:41.863Z,59.89
2023-02-27T04:28:25.067Z,59.13
2023-02-27T04:31:24.873Z,58.42
2023-02-27T04:34:22.365Z,59.03
2023-02-27T04:36:56.278Z,59.85
2023-02-27T04:39:28.012Z,58.74
2023-02-27T04:42:02.206Z,59.19
2023-02-27T04:44:32.563Z,58.83
2023-02-27T04:47:01.490Z,58.91
2023-02-27T04:50:00.989Z,59.06
2023-02-27T04:52:37.302Z,58.79
2023-02-27T04:55:23.168Z,58.76
2023-02-27T04:58:01.829Z,58.96
2023-02-27T05:00:32.608Z,58.96
2023-02-27T05:03:22.852Z,59.04
2023-02-27T05:05:52.830Z,58.89
2023-02-27T05:08:58.037Z,59.25
2023-02-27T05:11:48.225Z,59.04
2023-02-27T05:14:31.617Z,58.35
2023-02-27T05:17:09.265Z,58.65
2023-02-27T05:19:40.775Z,59.51
2023-02-27T05:22:13.220Z,59.24
2023-02-27T05:24:56.866Z,59.36
2023-02-27T05:27:41.249Z,58.99
2023-02-27T05:30:17.560Z,59.57
2023-02-27T05:32:49.510Z,60.02
2023-02-27T05:35:19.764Z,60.10
2023-02-27T05:37:51.515Z,59.83
2023-02-27T05:40:28.567Z,60.33
2023-02-27T05:43:06.498Z,60.69
2023-02-27T05:45:36.837Z,60.33
2023-02-27T05:48:27.636Z,60.62
2023-02-27T05:50:56.094Z,60.44
2023-02-27T05:53:28.176Z,61.06
2023-02-27T05:55:58.652Z,60.52
2023-02-27T05:58:35.973Z,60.87
2023-02-27T06:01:06.840Z,60.88
2023-02-27T06:03:39.977Z,61.51
2023-02-27T06:06:11.436Z,61.90
2023-02-27T06:08:38.072Z,61.87
2023-02-27T06:11:08.109Z,61.83
2023-02-27T06:13:34.730Z,61.84
2023-02-27T06:16:01.288Z,61.95
2023-02-27T06:18:28.033Z,61.96
2023-02-27T06:20:54.541Z,62.22
2023-02-27T06:23:21.271Z,62.29
2023-02-27T06:25:49.256Z,62.78
2023-02-27T06:28:15.864Z,62.91
2023-02-27T06:30:43.033Z,62.42
2023-02-27T06:33:12.344Z,62.94
2023-02-27T06:35:39.233Z,63.05
2023-02-27T06:38:08.537Z,63.05
2023-02-27T06:40:35.016Z,63.30
2023-02-27T06:43:01.552Z,62.76
2023-02-27T06:45:28.038Z,63.14
2023-02-27T06:47:54.507Z,62.31
2023-02-27T06:50:21.175Z,63.23
2023-02-27T06:52:47.653Z,63.21
2023-02-27T06:55:19.917Z,63.10
2023-02-27T06:57:49.511Z,62.68
2023-02-27T07:00:17.036Z,62.37
2023-02-27T07:02:43.535Z,62.68
2023-02-27T07:05:11.949Z,62.80
2023-02-27T07:07:39.210Z,63.05
2023-02-27T07:10:08.708Z,62.59
2023-02-27T07:12:35.263Z,62.97
2023-02-27T07:15:01.807Z,62.49
2023-02-27T07:17:28.305Z,62.47
2023-02-27T07:19:54.789Z,62.28
2023-02-27T07:22:21.264Z,62.48
2023-02-27T07:24:47.720Z,62.43
2023-02-27T07:27:14.261Z,62.26
2023-02-27T07:29:40.869Z,62.50
2023-02-27T07:32:09.757Z,62.58
2023-02-27T07:34:36.363Z,63.00
2023-02-27T07:37:03.108Z,62.66
2023-02-27T07:39:29.674Z,63.23
2023-02-27T07:41:56.116Z,66.36
2023-02-27T07:44:22.870Z,62.64
2023-02-27T07:46:49.417Z,62.53
2023-02-27T07:49:15.937Z,62.48
2023-02-27T07:51:42.411Z,62.37
2023-02-27T07:54:12.493Z,63.30
2023-02-27T07:56:41.725Z,62.68
2023-02-27T07:59:10.462Z,62.75
2023-02-27T08:01:36.907Z,63.33
2023-02-27T08:04:03.440Z,63.21
2023-02-27T08:06:30.284Z,63.31
2023-02-27T08:08:56.881Z,63.78
2023-02-27T08:11:23.525Z,63.49
2023-02-27T08:14:05.436Z,63.22
2023-02-27T08:16:32.666Z,63.89
2023-02-27T08:19:00.456Z,63.07
2023-02-27T08:21:28.083Z,63.02
2023-02-27T08:23:55.290Z,62.10
2023-02-27T08:26:22.155Z,62.71
2023-02-27T08:28:48.710Z,61.62
2023-02-27T08:31:15.218Z,61.62
2023-02-27T08:33:41.718Z,61.00
2023-02-27T08:36:08.518Z,60.70
2023-02-27T08:38:35.034Z,59.73
2023-02-27T08:41:01.511Z,59.03
2023-02-27T08:43:28.023Z,58.81
2023-02-27T08:45:54.548Z,59.22
2023-02-27T08:48:21.198Z,58.92
2023-02-27T08:50:47.789Z,58.89
2023-02-27T08:53:14.452Z,58.32
2023-02-27T08:55:41.330Z,58.80
2023-02-27T08:58:11.326Z,58.67
2023-02-27T09:00:42.293Z,57.86
2023-02-27T09:03:09.754Z,57.71
2023-02-27T09:05:45.326Z,58.34
2023-02-27T09:08:11.888Z,57.55
2023-02-27T09:10:38.664Z,57.47
2023-02-27T09:13:05.233Z,57.99
2023-02-27T09:15:34.391Z,57.73
2023-02-27T09:18:03.182Z,57.27
2023-02-27T09:20:35.955Z,57.28
2023-02-27T09:23:03.845Z,56.88
2023-02-27T09:25:30.753Z,54.59
2023-02-27T09:27:57.692Z,54.74
2023-02-27T09:30:24.735Z,54.25
2023-02-27T09:32:51.505Z,55.07
2023-02-27T09:35:20.449Z,55.49
2023-02-27T09:37:47.258Z,54.85
2023-02-27T09:40:24.548Z,55.55
2023-02-27T09:42:53.435Z,53.54
2023-02-27T09:45:26.406Z,54.72
2023-02-27T09:47:56.619Z,54.92
2023-02-27T09:50:40.622Z,54.88
2023-02-27T09:53:18.933Z,54.17
2023-02-27T09:55:46.631Z,53.79
2023-02-27T09:58:34.821Z,54.05
2023-02-27T10:01:20.881Z,53.88
2023-02-27T10:03:50.210Z,54.02
2023-02-27T10:06:32.326Z,53.47
2023-02-27T10:09:09.975Z,53.16
2023-02-27T10:11:48.823Z,53.46
2023-02-27T10:14:39.598Z,52.84
2023-02-27T10:17:13.865Z,52.24
2023-02-27T10:19:43.016Z,51.86
2023-02-27T10:22:16.470Z,52.09
2023-02-27T10:24:50.104Z,50.98
2023-02-27T10:27:20.269Z,52.68
2023-02-27T10:29:46.778Z,52.38
2023-02-27T10:32:27.216Z,52.36
2023-02-27T10:35:27.201Z,51.49
2023-02-27T10:37:59.644Z,52.17
2023-02-27T10:40:26.854Z,51.79
2023-02-27T10:42:56.142Z,53.16
2023-02-27T10:45:22.844Z,51.00
2023-02-27T10:47:49.256Z,50.91
2023-02-27T10:50:32.191Z,52.60
2023-02-27T10:53:01.873Z,52.55
2023-02-27T10:55:35.542Z,52.46
2023-02-27T10:58:04.497Z,50.94
2023-02-27T11:00:45.145Z,52.31
2023-02-27T11:03:29.712Z,51.22
2023-02-27T11:05:59.446Z,50.11
2023-02-27T11:08:29.078Z,49.91
2023-02-27T11:11:03.119Z,50.34
2023-02-27T11:13:33.741Z,52.30
2023-02-27T11:16:17.207Z,50.91
2023-02-27T11:18:45.881Z,51.05
2023-02-27T11:21:22.697Z,51.59
2023-02-27T11:23:58.751Z,51.62
2023-02-27T11:26:30.331Z,52.24
2023-02-27T11:29:18.303Z,51.31
2023-02-27T11:31:53.314Z,48.96
2023-02-27T11:34:25.131Z,49.34
2023-02-27T11:36:55.661Z,49.26
2023-02-27T11:39:35.042Z,48.07
2023-02-27T11:42:41.601Z,48.20
2023-02-27T11:46:04.587Z,48.24
2023-02-27T11:48:19.729Z,48.43
2023-02-27T11:51:00.853Z,48.45
2023-02-27T11:53:45.684Z,49.41
2023-02-27T11:56:18.662Z,48.60
2023-02-27T11:59:05.593Z,45.55
2023-02-27T12:01:42.900Z,45.09
2023-02-27T12:04:21.149Z,43.13
2023-02-27T12:07:23.214Z,41.33
2023-02-27T12:09:59.501Z,42.30
2023-02-27T12:12:36.258Z,42.95
2023-02-27T12:15:15.257Z,43.89
2023-02-27T12:17:47.821Z,45.21
2023-02-27T12:20:29.365Z,44.97
2023-02-27T12:22:56.306Z,44.06
2023-02-27T12:25:34.256Z,43.75
2023-02-27T12:28:18.798Z,44.19
2023-02-27T12:31:12.925Z,44.88
2023-02-27T12:34:11.952Z,44.85
2023-02-27T12:36:41.177Z,45.59
2023-02-27T12:39:18.805Z,46.69
2023-02-27T12:42:03.624Z,47.04
2023-02-27T12:44:41.933Z,46.56
2023-02-27T12:47:20.528Z,45.98
2023-02-27T12:50:15.227Z,45.75
2023-02-27T12:53:17.114Z,46.06
2023-02-27T12:55:54.778Z,46.73
2023-02-27T12:58:35.264Z,46.58
2023-02-27T13:01:13.851Z,47.34
2023-02-27T13:03:54.343Z,47.39
2023-02-27T13:06:40.889Z,47.29
2023-02-27T13:09:20.868Z,47.14
2023-02-27T13:11:58.390Z,47.98
2023-02-27T13:14:43.581Z,48.90
2023-02-27T13:17:36.947Z,49.44
2023-02-27T13:20:14.929Z,48.77
2023-02-27T13:22:47.420Z,48.71
2023-02-27T13:25:16.127Z,49.75
2023-02-27T13:27:47.477Z,51.13
2023-02-27T13:30:17.114Z,49.38
2023-02-27T13:33:18.816Z,49.27
2023-02-27T13:35:56.686Z,48.74
2023-02-27T13:38:50.455Z,49.11
2023-02-27T13:41:19.988Z,49.93
2023-02-27T13:43:55.996Z,50.22
2023-02-27T13:46:34.680Z,50.79
2023-02-27T13:49:04.102Z,51.45
2023-02-27T13:51:36.571Z,51.45
2023-02-27T13:54:31.124Z,51.64
2023-02-27T13:57:25.293Z,49.18
2023-02-27T14:00:05.009Z,50.46
2023-02-27T14:02:40.249Z,50.45
2023-02-27T14:05:17.566Z,50.78
2023-02-27T14:08:19.184Z,50.84
2023-02-27T14:11:12.928Z,51.02
2023-02-27T14:13:45.161Z,50.38
2023-02-27T14:16:38.362Z,51.12
2023-02-27T14:19:17.803Z,50.19
2023-02-27T14:21:56.488Z,51.44
2023-02-27T14:24:33.823Z,51.19
2023-02-27T14:27:01.353Z,50.45
2023-02-27T14:29:33.426Z,51.18
2023-02-27T14:32:03.879Z,50.40
2023-02-27T14:34:31.226Z,50.30
2023-02-27T14:37:02.266Z,51.42
2023-02-27T14:39:33.286Z,50.91
2023-02-27T14:42:18.562Z,53.52
2023-02-27T14:44:47.128Z,51.04
2023-02-27T14:47:37.514Z,51.62
2023-02-27T14:50:07.783Z,51.81
2023-02-27T14:52:42.661Z,51.64
2023-02-27T14:55:29.137Z,50.96
2023-02-27T14:57:55.739Z,52.12
2023-02-27T15:00:50.375Z,52.18
2023-02-27T15:03:22.672Z,51.60
2023-02-27T15:05:54.917Z,51.18
2023-02-27T15:08:28.587Z,51.89
2023-02-27T15:10:57.124Z,50.74
2023-02-27T15:13:37.359Z,50.49
2023-02-27T15:16:34.043Z,50.74
2023-02-27T15:19:20.046Z,51.09
2023-02-27T15:21:51.848Z,50.94
2023-02-27T15:24:26.163Z,50.10
2023-02-27T15:26:59.558Z,53.10
2023-02-27T15:29:40.137Z,51.66
2023-02-27T15:32:07.526Z,50.79
2023-02-27T15:34:35.387Z,51.27
2023-02-27T15:37:02.546Z,51.04
2023-02-27T15:39:31.530Z,50.61
2023-02-27T15:42:05.529Z,51.31
2023-02-27T15:44:40.725Z,51.45
2023-02-27T15:47:10.764Z,51.54
2023-02-27T15:49:37.502Z,51.42
2023-02-27T15:52:18.585Z,51.86
2023-02-27T15:55:10.613Z,51.38
2023-02-27T15:57:37.123Z,51.18
2023-02-27T16:00:06.727Z,52.24
2023-02-27T16:02:54.238Z,51.94
2023-02-27T16:05:24.890Z,52.18
2023-02-27T16:07:52.294Z,52.43
2023-02-27T16:10:26.657Z,52.18
2023-02-27T16:12:54.039Z,52.69
2023-02-27T16:15:27.101Z,52.10
2023-02-27T16:18:08.924Z,52.48
2023-02-27T16:20:40.886Z,52.66
2023-02-27T16:23:23.847Z,52.85
2023-02-27T16:26:20.888Z,52.66
2023-02-27T16:28:51.202Z,52.66
2023-02-27T16:31:25.332Z,52.61
2023-02-27T16:33:53.045Z,52.37
2023-02-27T16:36:22.706Z,52.94
2023-02-27T16:38:49.194Z,52.85
2023-02-27T16:41:17.541Z,53.20
2023-02-27T16:43:48.429Z,53.52
2023-02-27T16:46:20.333Z,53.37
2023-02-27T16:48:53.303Z,52.91
2023-02-27T16:51:23.839Z,52.74
2023-02-27T16:53:56.648Z,52.62
2023-02-27T16:56:37.259Z,52.92
2023-02-27T16:59:05.005Z,53.42
2023-02-27T17:01:33.862Z,52.83
2023-02-27T17:04:01.110Z,52.94
2023-02-27T17:06:28.127Z,53.30
2023-02-27T17:08:56.007Z,53.73
2023-02-27T17:11:22.930Z,53.04
2023-02-27T17:13:49.434Z,53.43
2023-02-27T17:16:16.147Z,53.18
2023-02-27T17:18:46.819Z,53.29
2023-02-27T17:21:16.331Z,53.41
2023-02-27T17:23:46.390Z,53.77
2023-02-27T17:26:18.302Z,54.15
2023-02-27T17:28:47.882Z,53.91
2023-02-27T17:31:15.884Z,53.82
2023-02-27T17:33:46.593Z,54.47
2023-02-27T17:36:16.412Z,54.55
2023-02-27T17:38:46.087Z,54.36
2023-02-27T17:41:14.938Z,54.46
2023-02-27T17:43:43.651Z,54.97
2023-02-27T17:46:14.937Z,55.34
2023-02-27T17:48:44.661Z,55.65
2023-02-27T17:51:17.033Z,55.73
2023-02-27T17:53:49.861Z,55.49
2023-02-27T17:56:16.620Z,54.76
2023-02-27T17:58:46.906Z,59.01
2023-02-27T18:01:21.684Z,57.39
2023-02-27T18:03:49.498Z,56.42
2023-02-27T18:06:17.066Z,55.08
2023-02-27T18:08:47.297Z,55.22
2023-02-27T18:11:23.957Z,55.10
2023-02-27T18:13:53.355Z,55.16
2023-02-27T18:16:22.018Z,55.04
2023-02-27T18:18:49.408Z,55.23
2023-02-27T18:21:20.287Z,54.40
2023-02-27T18:23:51.839Z,55.45
2023-02-27T18:26:30.490Z,55.53
2023-02-27T18:29:06.047Z,55.53
2023-02-27T18:31:38.479Z,55.33
2023-02-27T18:34:05.577Z,55.66
2023-02-27T18:36:33.627Z,55.73
2023-02-27T18:39:01.377Z,55.97
2023-02-27T18:41:29.405Z,56.05
2023-02-27T18:44:11.328Z,55.56
2023-02-27T18:46:39.048Z,55.69
2023-02-27T18:49:06.027Z,56.37
2023-02-27T18:51:32.658Z,56.41
2023-02-27T18:54:00.828Z,56.32
2023-02-27T18:56:30.348Z,56.36
2023-02-27T18:58:58.239Z,56.41
2023-02-27T19:01:31.065Z,56.81
2023-02-27T19:04:03.417Z,56.29
2023-02-27T19:06:35.083Z,56.02
2023-02-27T19:09:03.854Z,55.97
2023-02-27T19:11:34.647Z,56.03
2023-02-27T19:14:03.845Z,56.53
2023-02-27T19:16:30.989Z,56.62
2023-02-27T19:18:59.319Z,56.41
2023-02-27T19:21:26.893Z,56.79
2023-02-27T19:23:54.559Z,56.47
2023-02-27T19:26:22.019Z,57.31
2023-02-27T19:28:54.218Z,57.82
2023-02-27T19:31:24.017Z,58.21
2023-02-27T19:33:50.724Z,58.20
2023-02-27T19:36:20.779Z,58.18
2023-02-27T19:38:47.358Z,58.17
2023-02-27T19:41:17.814Z,58.01
2023-02-27T19:43:48.506Z,58.32
2023-02-27T19:46:24.375Z,58.47
2023-02-27T19:48:52.697Z,58.15
2023-02-27T19:51:19.562Z,58.44
2023-02-27T19:53:48.372Z,58.54
2023-02-27T19:56:18.406Z,58.62
2023-02-27T19:58:49.000Z,58.67
2023-02-27T20:01:31.988Z,59.29
2023-02-27T20:03:59.900Z,58.78
2023-02-27T20:06:29.456Z,58.82
2023-02-27T20:08:57.866Z,58.87
2023-02-27T20:11:24.503Z,59.16
2023-02-27T20:13:51.949Z,58.92
2023-02-27T20:16:22.143Z,59.11
2023-02-27T20:18:49.083Z,58.37
2023-02-27T20:21:23.899Z,59.31
2023-02-27T20:23:51.865Z,58.98
2023-02-27T20:26:26.527Z,58.96
2023-02-27T20:28:56.339Z,59.69
2023-02-27T20:31:25.765Z,59.64
2023-02-27T20:33:52.329Z,59.94
2023-02-27T20:36:19.172Z,59.41
2023-02-27T20:38:48.885Z,59.44
2023-02-27T20:41:20.474Z,59.03
2023-02-27T20:43:47.626Z,59.69
2023-02-27T20:46:22.472Z,59.50
2023-02-27T20:48:49.642Z,59.47
2023-02-27T20:51:20.589Z,59.33
2023-02-27T20:53:49.344Z,59.35
2023-02-27T20:56:19.631Z,58.76
2023-02-27T20:58:46.487Z,59.02
2023-02-27T21:01:17.668Z,58.95
2023-02-27T21:03:46.841Z,58.60
2023-02-27T21:06:19.153Z,58.66
2023-02-27T21:08:48.293Z,58.98
2023-02-27T21:11:21.707Z,59.32
2023-02-27T21:13:50.039Z,59.50
2023-02-27T21:16:18.210Z,58.98
2023-02-27T21:18:51.670Z,58.90
2023-02-27T21:21:24.458Z,59.22
2023-02-27T21:23:51.651Z,59.14
2023-02-27T21:26:24.090Z,59.01
2023-02-27T21:29:02.765Z,58.65
2023-02-27T21:31:32.480Z,58.73
2023-02-27T21:34:02.762Z,57.53
2023-02-27T21:36:32.356Z,58.64
2023-02-27T21:39:01.738Z,59.01
2023-02-27T21:41:29.413Z,58.47
2023-02-27T21:44:05.537Z,58.83
2023-02-27T21:46:32.937Z,58.15
2023-02-27T21:48:59.847Z,58.49
2023-02-27T21:51:39.606Z,57.87
2023-02-27T21:54:07.315Z,58.52
2023-02-27T21:56:33.880Z,58.72
2023-02-27T21:59:01.782Z,58.88
2023-02-27T22:01:29.649Z,58.59
2023-02-27T22:03:57.340Z,58.23
2023-02-27T22:06:26.203Z,58.23
2023-02-27T22:08:56.880Z,58.49
2023-02-27T22:11:25.316Z,58.72
2023-02-27T22:13:52.190Z,58.89
2023-02-27T22:16:19.513Z,58.88
2023-02-27T22:18:51.603Z,58.82
2023-02-27T22:21:22.633Z,58.99
2023-02-27T22:23:50.247Z,58.16
2023-02-27T22:26:22.753Z,58.89
2023-02-27T22:28:51.025Z,58.26
2023-02-27T22:31:26.988Z,58.24
2023-02-27T22:33:56.129Z,57.28
2023-02-27T22:36:29.303Z,57.38
2023-02-27T22:38:56.645Z,57.91
2023-02-27T22:41:26.321Z,57.42
2023-02-27T22:43:53.404Z,57.75
2023-02-27T22:46:29.237Z,57.13
2023-02-27T22:48:57.009Z,57.00
2023-02-27T22:51:25.519Z,58.16
2023-02-27T22:53:52.081Z,57.67
2023-02-27T22:56:20.305Z,57.99
2023-02-27T22:58:49.999Z,57.01
2023-02-27T23:01:23.544Z,56.71
2023-02-27T23:03:53.772Z,56.54
2023-02-27T23:06:30.972Z,57.71
2023-02-27T23:08:58.212Z,57.76
2023-02-27T23:11:24.777Z,57.78
2023-02-27T23:13:54.500Z,57.64
2023-02-27T23:16:21.614Z,57.28
2023-02-27T23:18:52.330Z,57.27
2023-02-27T23:21:26.655Z,57.71
2023-02-27T23:23:57.994Z,57.64
2023-02-27T23:26:28.643Z,57.52
2023-02-27T23:28:56.590Z,57.29
2023-02-27T23:31:23.334Z,56.97
2023-02-27T23:33:53.499Z,57.39
2023-02-27T23:36:22.275Z,57.87
2023-02-27T23:38:48.785Z,56.80
2023-02-27T23:41:17.423Z,57.33
2023-02-27T23:43:44.734Z,56.60
2023-02-27T23:46:14.022Z,56.98
2023-02-27T23:48:41.157Z,56.45
2023-02-27T23:51:09.242Z,56.80
2023-02-27T23:53:37.761Z,57.38
2023-02-27T23:56:20.350Z,56.52
2023-02-27T23:58:47.909Z,56.84
